Time;durP1;ratioP1;P1;durP2;ratioP2;P2;SDS_P1;SDS_P2;PMS_P1;PMS_P2;Temp;Humidity;BMP_temperature;BMP_pressure;BME280_temperature;BME280_humidity;BME280_pressure;Samples;Min_cycle;Max_cycle;Signal;HPM_P1;HPM_P2
2022/11/06 05:01:11;;;;;;;1.10;1.10;;;9.60;99.90;;;;;;6056811;23;20593;-69
2022/11/06 05:03:37;;;;;;;2.47;1.30;;;9.60;99.90;;;;;;6091053;23;20188;-69
2022/11/06 05:06:05;;;;;;;0.70;0.70;;;9.60;99.90;;;;;;6093463;23;20216;-68
2022/11/06 05:08:31;;;;;;;6.20;2.20;;;9.60;99.90;;;;;;6093223;23;20187;-67
2022/11/06 05:10:58;;;;;;;1.27;1.27;;;9.60;99.90;;;;;;6093166;23;20205;-68
2022/11/06 05:13:24;;;;;;;1.48;1.38;;;9.60;99.90;;;;;;6094436;23;20189;-68
2022/11/06 05:15:56;;;;;;;2.63;1.50;;;9.60;99.90;;;;;;6094031;23;20199;-69
2022/11/06 05:18:24;;;;;;;1.40;1.30;;;9.60;99.90;;;;;;6093191;23;20206;-67
2022/11/06 05:22:56;;;;;;;3.03;1.42;;;9.60;99.90;;;;;;6094131;23;20283;-68
2022/11/06 05:23:37;;;;;;;1.17;1.17;;;9.60;99.90;;;;;;6092716;23;20190;-68
2022/11/06 05:26:04;;;;;;;1.10;1.10;;;9.60;99.90;;;;;;6093649;23;20223;-66
2022/11/06 05:28:31;;;;;;;3.83;1.20;;;9.60;99.90;;;;;;6094082;23;20194;-68
2022/11/06 05:30:57;;;;;;;1.17;1.08;;;9.50;99.90;;;;;;6093443;23;20216;-68
2022/11/06 05:33:26;;;;;;;1.67;1.58;;;9.50;99.90;;;;;;6091675;23;20214;-68
2022/11/06 05:35:52;;;;;;;1.65;1.55;;;9.50;99.90;;;;;;6093799;23;20694;-68
2022/11/06 05:38:19;;;;;;;0.70;0.70;;;9.50;99.90;;;;;;6093619;23;20181;-67
2022/11/06 05:40:46;;;;;;;0.63;0.63;;;9.50;99.90;;;;;;6103688;23;20191;-69
2022/11/06 05:43:13;;;;;;;1.00;1.00;;;9.40;99.90;;;;;;6093957;23;20322;-69
2022/11/06 05:45:39;;;;;;;2.13;1.50;;;9.40;99.90;;;;;;6092609;23;20202;-68
2022/11/06 05:48:06;;;;;;;0.85;0.85;;;9.40;99.90;;;;;;6093495;23;20642;-68
2022/11/06 05:50:34;;;;;;;1.58;1.58;;;9.50;99.90;;;;;;6092447;23;20222;-67
2022/11/06 05:53:01;;;;;;;1.15;1.05;;;9.40;99.90;;;;;;6089827;23;20184;-68
2022/11/06 05:55:28;;;;;;;1.23;1.23;;;9.40;99.90;;;;;;6093598;23;20179;-69
2022/11/06 05:57:54;;;;;;;0.60;0.60;;;9.40;99.90;;;;;;6094097;23;20255;-69
2022/11/06 06:00:21;;;;;;;0.90;0.90;;;9.40;99.90;;;;;;6093125;23;20542;-68
2022/11/06 06:02:48;;;;;;;1.88;1.17;;;9.40;99.90;;;;;;6092254;23;20419;-68
2022/11/06 06:05:15;;;;;;;1.00;1.00;;;9.30;99.90;;;;;;6093179;23;20211;-68
2022/11/06 06:07:43;;;;;;;1.30;1.30;;;9.40;99.90;;;;;;6093018;23;20183;-68
2022/11/06 06:10:10;;;;;;;5.00;2.20;;;9.30;99.90;;;;;;6093539;23;20887;-68
2022/11/06 06:12:38;;;;;;;1.10;1.10;;;9.30;99.90;;;;;;6093537;23;20199;-69
2022/11/06 06:15:06;;;;;;;1.63;1.52;;;9.40;99.90;;;;;;6103104;23;20179;-69
2022/11/06 06:17:32;;;;;;;1.40;1.23;;;9.30;99.90;;;;;;6093410;23;20663;-69
2022/11/06 06:19:59;;;;;;;1.42;1.33;;;9.40;99.90;;;;;;6092258;23;20203;-69
2022/11/06 06:22:26;;;;;;;1.40;1.30;;;9.40;99.90;;;;;;6092738;23;20696;-68
2022/11/06 06:24:54;;;;;;;1.60;1.52;;;9.40;99.90;;;;;;6092714;23;20194;-70
2022/11/06 06:27:20;;;;;;;2.13;1.92;;;9.40;99.90;;;;;;6093512;23;20187;-69
2022/11/06 06:29:47;;;;;;;2.10;1.33;;;9.40;99.90;;;;;;6093281;23;20206;-68
2022/11/06 06:32:14;;;;;;;15.10;1.98;;;9.40;99.90;;;;;;6092152;23;20216;-69
2022/11/06 06:34:41;;;;;;;1.27;1.27;;;9.40;99.90;;;;;;6093009;23;20218;-69
2022/11/06 06:37:08;;;;;;;3.75;1.35;;;9.40;99.90;;;;;;6090809;23;20190;-68
2022/11/06 06:39:35;;;;;;;1.95;1.63;;;9.50;99.90;;;;;;6092962;23;20183;-69
2022/11/06 06:42:03;;;;;;;1.00;1.00;;;9.50;99.90;;;;;;6093063;23;20483;-68
2022/11/06 06:44:30;;;;;;;0.65;0.65;;;9.50;99.90;;;;;;6092428;23;20752;-69
2022/11/06 06:46:57;;;;;;;2.00;1.90;;;9.50;99.90;;;;;;6092658;23;20203;-71
2022/11/06 06:49:24;;;;;;;1.17;1.17;;;9.60;99.90;;;;;;6093466;23;20240;-68
2022/11/06 06:51:51;;;;;;;1.42;1.05;;;9.60;99.90;;;;;;6091736;23;20246;-67
2022/11/06 06:54:17;;;;;;;0.98;0.98;;;9.60;99.90;;;;;;6092532;23;20183;-70
2022/11/06 06:56:44;;;;;;;0.85;0.85;;;9.60;99.90;;;;;;6091642;23;20190;-67
2022/11/06 06:59:12;;;;;;;1.30;1.13;;;9.60;99.90;;;;;;6092756;23;20507;-67
2022/11/06 07:01:39;;;;;;;9.50;1.48;;;9.70;99.90;;;;;;6092274;23;20623;-69
2022/11/06 07:04:06;;;;;;;1.70;1.60;;;9.70;99.90;;;;;;6092441;23;20219;-68
2022/11/06 07:06:33;;;;;;;1.10;1.10;;;9.60;99.90;;;;;;6092414;23;20201;-70
2022/11/06 07:08:59;;;;;;;1.75;1.65;;;9.60;99.90;;;;;;6092193;23;20190;-68
2022/11/06 07:11:26;;;;;;;3.08;1.25;;;9.60;99.90;;;;;;6092730;23;20288;-68
2022/11/06 07:13:53;;;;;;;1.05;0.90;;;9.60;99.90;;;;;;6092592;23;20187;-68
2022/11/06 07:16:21;;;;;;;1.60;1.50;;;9.60;99.90;;;;;;6093565;23;20178;-70
2022/11/06 07:18:48;;;;;;;16.05;5.00;;;9.70;99.90;;;;;;6093275;23;20184;-69
2022/11/06 07:21:14;;;;;;;2.33;2.22;;;9.70;99.90;;;;;;6092687;23;20543;-68
2022/11/06 07:23:41;;;;;;;3.28;2.90;;;9.90;99.90;;;;;;6092662;23;20196;-69
2022/11/06 07:26:08;;;;;;;43.95;19.90;;;9.90;99.90;;;;;;6092761;23;20203;-69
2022/11/06 07:28:35;;;;;;;38.17;19.92;;;9.90;99.90;;;;;;6092679;23;20198;-69
2022/11/06 07:31:03;;;;;;;3.72;3.40;;;9.90;99.90;;;;;;6093233;23;20704;-69
2022/11/06 07:33:32;;;;;;;1.08;1.08;;;9.90;99.90;;;;;;6092457;23;20191;-69
2022/11/06 07:36:03;;;;;;;6.93;1.70;;;9.90;99.90;;;;;;6093020;23;20185;-69
2022/11/06 07:38:29;;;;;;;1.02;1.02;;;9.90;99.90;;;;;;6092923;23;20175;-69
2022/11/06 07:41:00;;;;;;;0.70;0.70;;;9.80;99.90;;;;;;6092883;23;20210;-69
2022/11/06 07:43:27;;;;;;;1.05;0.57;;;9.80;99.90;;;;;;6092374;23;20211;-69
2022/11/06 07:45:53;;;;;;;2.00;1.30;;;9.80;99.90;;;;;;6093060;23;20218;-70
2022/11/06 07:48:20;;;;;;;1.05;1.00;;;9.90;99.90;;;;;;6095206;23;20192;-69
2022/11/06 07:50:48;;;;;;;1.70;1.60;;;9.90;99.90;;;;;;6095462;23;20213;-69
2022/11/06 07:53:15;;;;;;;4.30;2.20;;;9.90;99.90;;;;;;6093283;23;20207;-68
2022/11/06 07:55:48;;;;;;;1.25;1.15;;;9.90;99.90;;;;;;6096835;23;20184;-69
2022/11/06 07:58:15;;;;;;;1.38;1.27;;;10.00;99.90;;;;;;6093145;23;20619;-69
2022/11/06 08:00:46;;;;;;;5.82;5.25;;;10.00;99.90;;;;;;6093623;23;20216;-70
2022/11/06 08:03:13;;;;;;;3.28;3.08;;;10.00;99.90;;;;;;6093011;23;20169;-70
2022/11/06 08:05:39;;;;;;;2.40;2.08;;;10.00;99.90;;;;;;6093935;23;20659;-69
2022/11/06 08:08:08;;;;;;;3.75;1.65;;;10.10;99.90;;;;;;6093697;23;20554;-68
2022/11/06 08:10:39;;;;;;;1.75;0.68;;;10.10;99.90;;;;;;6095203;23;20211;-70
2022/11/06 08:13:06;;;;;;;1.95;1.10;;;10.10;99.90;;;;;;6094778;23;20208;-69
2022/11/06 08:15:32;;;;;;;0.75;0.75;;;10.10;99.90;;;;;;6095097;23;20182;-70
2022/11/06 08:17:59;;;;;;;4.88;0.50;;;10.20;99.90;;;;;;6095759;23;20199;-70
2022/11/06 08:20:26;;;;;;;0.73;0.73;;;10.20;99.90;;;;;;6094172;23;20187;-70
2022/11/06 08:22:57;;;;;;;0.60;0.60;;;10.20;99.90;;;;;;6093384;23;20198;-68
2022/11/06 08:25:26;;;;;;;1.13;0.73;;;10.30;99.90;;;;;;6095474;23;20174;-69
2022/11/06 08:27:54;;;;;;;1.80;1.40;;;10.30;99.90;;;;;;6095439;23;20184;-69
2022/11/06 08:30:21;;;;;;;0.90;0.90;;;10.40;99.90;;;;;;6095246;23;20181;-69
2022/11/06 08:32:48;;;;;;;0.70;0.70;;;10.40;99.90;;;;;;6093562;23;20193;-69
2022/11/06 08:35:14;;;;;;;1.70;1.60;;;10.50;99.90;;;;;;6093256;23;20198;-68
2022/11/06 08:37:41;;;;;;;7.15;1.38;;;10.50;99.90;;;;;;6093510;23;20181;-69
2022/11/06 08:40:09;;;;;;;9.60;2.20;;;10.50;99.90;;;;;;6094729;23;20187;-69
2022/11/06 08:42:37;;;;;;;7.18;1.00;;;10.50;99.90;;;;;;6092505;23;20275;-69
2022/11/06 08:45:05;;;;;;;7.35;5.25;;;10.50;99.90;;;;;;6094429;23;20203;-69
2022/11/06 08:47:31;;;;;;;9.27;4.63;;;10.50;99.90;;;;;;6092952;23;20199;-69
2022/11/06 08:49:58;;;;;;;4.47;3.90;;;10.60;99.90;;;;;;6094481;23;20189;-69
2022/11/06 08:52:25;;;;;;;1.27;1.20;;;10.60;99.90;;;;;;6093311;23;20202;-70
2022/11/06 08:54:52;;;;;;;5.90;4.57;;;10.60;99.90;;;;;;6093447;23;20193;-70
2022/11/06 08:57:18;;;;;;;4.20;2.25;;;10.60;99.90;;;;;;6094218;23;20179;-70
2022/11/06 08:59:46;;;;;;;2.25;2.05;;;10.60;99.90;;;;;;6094842;23;20184;-70
2022/11/06 09:02:14;;;;;;;17.25;8.27;;;10.60;99.90;;;;;;6093623;23;20214;-70
2022/11/06 09:04:40;;;;;;;29.00;16.20;;;10.70;99.90;;;;;;6094511;23;20186;-70
2022/11/06 09:07:08;;;;;;;16.10;6.80;;;10.70;99.90;;;;;;6094038;23;20215;-68
2022/11/06 09:09:34;;;;;;;11.95;6.45;;;10.80;99.90;;;;;;6094216;23;20227;-68
2022/11/06 09:12:02;;;;;;;16.85;9.02;;;10.80;99.90;;;;;;6093292;23;20213;-71
2022/11/06 09:14:29;;;;;;;16.58;7.88;;;10.90;99.90;;;;;;6094353;23;20186;-71
2022/11/06 09:16:58;;;;;;;8.05;6.22;;;10.90;99.90;;;;;;6094157;23;20182;-70
2022/11/06 09:19:25;;;;;;;3.10;2.40;;;11.00;99.90;;;;;;6093879;23;20185;-69
2022/11/06 09:21:51;;;;;;;4.68;3.75;;;11.10;99.90;;;;;;6093065;23;20214;-70
2022/11/06 09:24:18;;;;;;;4.55;1.92;;;11.10;99.90;;;;;;6093381;23;20212;-69
2022/11/06 09:26:45;;;;;;;2.05;1.48;;;11.10;99.90;;;;;;6093999;23;20225;-72
2022/11/06 09:29:11;;;;;;;1.02;1.00;;;11.10;99.90;;;;;;6094437;23;20670;-70
2022/11/06 09:31:38;;;;;;;1.58;0.77;;;11.20;99.90;;;;;;6095318;23;20204;-70
2022/11/06 09:34:06;;;;;;;1.55;1.45;;;11.20;99.90;;;;;;6092743;23;20205;-69
2022/11/06 09:36:33;;;;;;;5.78;1.65;;;11.30;99.90;;;;;;6094043;23;20213;-70
2022/11/06 09:39:00;;;;;;;0.77;0.77;;;11.40;99.90;;;;;;6094445;23;20195;-70
2022/11/06 09:41:37;;;;;;;4.63;1.00;;;11.40;99.90;;;;;;6094722;23;20204;-70
2022/11/06 09:44:18;;;;;;;0.85;0.85;;;11.40;99.90;;;;;;6091822;23;20185;-70
2022/11/06 09:46:47;;;;;;;11.57;0.88;;;11.40;99.90;;;;;;6093914;23;20493;-69
2022/11/06 09:49:20;;;;;;;3.20;0.52;;;11.40;99.90;;;;;;6093800;23;20466;-70
2022/11/06 09:51:54;;;;;;;7.70;4.55;;;11.40;99.90;;;;;;6093798;23;20209;-69
2022/11/06 09:54:26;;;;;;;5.07;4.20;;;11.40;99.90;;;;;;6092578;23;20181;-70
2022/11/06 09:56:59;;;;;;;7.60;6.43;;;11.30;99.90;;;;;;6094558;23;20165;-69
2022/11/06 09:59:26;;;;;;;2.13;2.05;;;11.20;99.90;;;;;;6093838;23;20172;-69
2022/11/06 10:01:56;;;;;;;1.10;1.10;;;11.20;99.90;;;;;;6093519;23;20229;-69
2022/11/06 10:04:36;;;;;;;10.30;3.20;;;11.10;99.90;;;;;;6092756;23;20217;-69
2022/11/06 10:07:02;;;;;;;0.80;0.80;;;11.10;99.90;;;;;;6092250;23;20241;-69
2022/11/06 10:09:30;;;;;;;1.23;1.23;;;11.20;99.90;;;;;;6091459;23;20183;-70
2022/11/06 10:12:07;;;;;;;0.80;0.80;;;11.20;99.90;;;;;;6094187;23;20209;-70
2022/11/06 10:14:54;;;;;;;1.95;0.80;;;11.30;99.90;;;;;;6092301;23;20581;-71
2022/11/06 10:17:37;;;;;;;1.85;0.70;;;11.40;99.90;;;;;;6093625;23;20172;-70
2022/11/06 10:20:12;;;;;;;1.88;1.55;;;11.50;99.90;;;;;;6094191;23;20478;-69
2022/11/06 10:22:41;;;;;;;2.73;2.03;;;11.60;99.90;;;;;;6091573;23;20183;-69
2022/11/06 10:25:19;;;;;;;4.33;4.10;;;11.70;99.90;;;;;;6093782;23;20426;-70
2022/11/06 10:28:00;;;;;;;3.80;2.07;;;11.90;99.90;;;;;;6093116;23;20435;-69
2022/11/06 10:30:35;;;;;;;1.73;1.63;;;12.00;99.90;;;;;;6093205;23;20411;-69
2022/11/06 10:33:20;;;;;;;1.90;1.80;;;12.10;99.90;;;;;;6093699;23;20411;-70
2022/11/06 10:35:52;;;;;;;0.80;0.80;;;12.30;99.90;;;;;;6094491;23;20418;-70
2022/11/06 10:38:23;;;;;;;3.10;0.73;;;12.50;99.90;;;;;;6092729;23;20407;-68
2022/11/06 10:40:50;;;;;;;0.63;0.63;;;12.70;99.90;;;;;;6092898;23;21324;-68
2022/11/06 10:43:26;;;;;;;0.80;0.80;;;12.70;99.90;;;;;;6092153;23;20430;-68
2022/11/06 10:46:00;;;;;;;0.87;0.87;;;12.70;99.90;;;;;;6093999;23;20418;-68
2022/11/06 10:48:30;;;;;;;1.50;0.70;;;12.70;99.90;;;;;;6091474;23;20403;-68
2022/11/06 10:51:09;;;;;;;1.40;1.40;;;12.70;99.90;;;;;;6093416;23;20786;-68
2022/11/06 10:53:47;;;;;;;1.17;1.17;;;12.70;99.90;;;;;;6092504;23;20418;-68
2022/11/06 10:56:32;;;;;;;0.67;0.67;;;12.70;99.90;;;;;;6094442;23;20407;-70
2022/11/06 10:58:59;;;;;;;0.70;0.70;;;12.80;99.90;;;;;;6093493;23;20407;-68
2022/11/06 11:01:26;;;;;;;0.73;0.73;;;12.90;99.90;;;;;;6093401;23;20451;-69
2022/11/06 11:03:53;;;;;;;1.43;1.23;;;12.90;99.90;;;;;;6093197;23;20445;-68
2022/11/06 11:06:21;;;;;;;3.13;2.93;;;12.90;99.90;;;;;;6095281;23;20428;-70
2022/11/06 11:08:49;;;;;;;2.87;2.53;;;12.90;99.90;;;;;;6095303;23;20433;-70
2022/11/06 11:11:21;;;;;;;1.87;1.77;;;12.90;99.90;;;;;;6094091;23;20454;-71
2022/11/06 11:13:50;;;;;;;6.23;5.63;;;12.80;99.90;;;;;;6093207;23;20419;-70
2022/11/06 11:16:20;;;;;;;3.37;2.00;;;12.70;99.90;;;;;;6093711;23;20432;-68
2022/11/06 11:18:48;;;;;;;4.40;2.43;;;12.70;99.90;;;;;;6092790;23;20455;-69
2022/11/06 11:21:24;;;;;;;8.83;1.60;;;12.70;99.90;;;;;;6094931;23;20466;-70
2022/11/06 11:24:08;;;;;;;3.40;2.60;;;12.80;99.90;;;;;;6094584;23;20777;-70
2022/11/06 11:26:39;;;;;;;1.27;1.17;;;12.80;99.90;;;;;;6096472;23;20467;-69
2022/11/06 11:29:15;;;;;;;2.30;2.20;;;12.90;99.90;;;;;;6104804;23;20426;-69
2022/11/06 11:31:47;;;;;;;1.33;1.33;;;12.80;99.90;;;;;;6095320;23;20473;-70
2022/11/06 11:34:20;;;;;;;6.57;4.40;;;12.80;99.90;;;;;;6094926;23;20411;-69
2022/11/06 11:36:51;;;;;;;3.17;2.60;;;12.90;99.90;;;;;;6095052;23;20447;-69
2022/11/06 11:39:21;;;;;;;2.70;2.47;;;12.90;99.90;;;;;;6095118;23;20498;-71
2022/11/06 11:41:47;;;;;;;1.57;1.47;;;12.90;99.90;;;;;;6104856;23;20430;-70
2022/11/06 11:44:16;;;;;;;0.70;0.70;;;12.90;99.90;;;;;;6103391;23;20429;-69
2022/11/06 11:46:48;;;;;;;1.47;0.90;;;12.90;99.90;;;;;;6094455;23;20455;-70
2022/11/06 11:49:29;;;;;;;1.63;0.90;;;12.90;99.90;;;;;;6095252;23;20720;-69
2022/11/06 11:51:59;;;;;;;0.77;0.77;;;12.90;99.90;;;;;;6094168;23;20509;-69
2022/11/06 11:54:28;;;;;;;2.73;1.73;;;12.90;99.90;;;;;;6094288;23;20422;-69
2022/11/06 11:56:57;;;;;;;1.83;1.60;;;12.90;99.90;;;;;;6091451;23;20452;-70
2022/11/06 11:59:28;;;;;;;4.73;2.47;;;13.00;99.90;;;;;;6092077;23;20191;-70
2022/11/06 12:01:57;;;;;;;3.00;2.83;;;13.00;99.90;;;;;;6104612;23;20425;-69
2022/11/06 12:04:27;;;;;;;2.73;2.63;;;13.00;99.90;;;;;;6093143;23;20522;-70
2022/11/06 12:07:00;;;;;;;3.63;1.60;;;12.90;99.90;;;;;;6095547;23;20470;-69
2022/11/06 12:09:28;;;;;;;3.93;1.33;;;13.00;99.90;;;;;;6104577;23;20430;-70
2022/11/06 12:11:57;;;;;;;4.33;2.77;;;13.00;99.90;;;;;;6094341;23;21023;-70
2022/11/06 12:14:37;;;;;;;2.93;1.90;;;13.00;99.90;;;;;;6094471;23;20432;-71
2022/11/06 12:17:13;;;;;;;9.67;5.63;;;13.00;99.90;;;;;;6094549;23;20450;-69
2022/11/06 12:19:45;;;;;;;2.13;2.13;;;13.10;99.90;;;;;;6095377;23;20416;-70
2022/11/06 12:22:18;;;;;;;7.90;4.43;;;13.10;99.90;;;;;;6094455;23;20490;-68
2022/11/06 12:24:52;;;;;;;2.03;1.93;;;13.10;99.90;;;;;;6093949;23;20419;-70
2022/11/06 12:27:25;;;;;;;2.40;2.20;;;13.10;99.90;;;;;;6093774;23;20460;-70
2022/11/06 12:29:57;;;;;;;8.10;5.07;;;13.10;99.90;;;;;;6095440;23;20452;-69
2022/11/06 12:32:36;;;;;;;3.27;3.00;;;13.20;99.90;;;;;;6094245;23;20182;-70
2022/11/06 12:35:12;;;;;;;3.83;3.50;;;13.10;99.90;;;;;;6094852;23;20897;-70
2022/11/06 12:37:49;;;;;;;4.00;1.60;;;13.10;99.90;;;;;;6093652;23;20505;-69
2022/11/06 12:40:22;;;;;;;2.10;2.00;;;13.00;99.90;;;;;;6103960;23;20505;-69
2022/11/06 12:43:02;;;;;;;3.30;3.10;;;12.90;99.90;;;;;;6093597;23;20957;-69
2022/11/06 12:45:38;;;;;;;1.90;1.90;;;13.00;99.90;;;;;;6104636;23;20422;-69
2022/11/06 12:48:17;;;;;;;0.93;0.93;;;13.10;99.90;;;;;;6094091;23;20461;-69
2022/11/06 12:50:51;;;;;;;2.00;0.90;;;13.20;99.90;;;;;;6093199;23;20414;-69
2022/11/06 12:53:34;;;;;;;2.10;2.00;;;13.20;99.90;;;;;;6091557;23;20733;-70
2022/11/06 12:56:12;;;;;;;0.73;0.73;;;13.30;99.90;;;;;;6090471;23;20712;-69
2022/11/06 12:58:57;;;;;;;0.40;0.40;;;13.30;99.90;;;;;;6090849;23;20493;-69
2022/11/06 13:01:41;;;;;;;0.53;0.53;;;13.30;99.90;;;;;;6093260;23;20414;-71
2022/11/06 13:04:43;;;;;;;0.60;0.60;;;13.20;99.90;;;;;;6093430;23;20498;-69
2022/11/06 13:07:45;;;;;;;1.13;1.10;;;13.10;99.90;;;;;;6084029;23;20548;-70
2022/11/06 13:10:26;;;;;;;1.53;1.53;;;13.00;99.90;;;;;;6095440;23;20415;-70
2022/11/06 13:13:06;;;;;;;0.90;0.83;;;13.00;99.90;;;;;;6093409;23;21294;-68
2022/11/06 13:15:38;;;;;;;0.87;0.87;;;12.90;99.90;;;;;;6094888;23;20498;-68
2022/11/06 13:18:12;;;;;;;0.90;0.90;;;12.90;99.90;;;;;;6095963;23;20476;-68
2022/11/06 13:20:45;;;;;;;1.13;1.13;;;12.90;99.90;;;;;;6094614;23;20441;-69
2022/11/06 13:23:18;;;;;;;0.87;0.87;;;13.00;99.90;;;;;;6094676;23;20425;-69
2022/11/06 13:25:54;;;;;;;0.97;0.97;;;13.00;99.90;;;;;;6095625;23;20442;-70
2022/11/06 13:28:33;;;;;;;0.70;0.70;;;13.00;99.90;;;;;;6095487;23;20450;-69
2022/11/06 13:31:03;;;;;;;2.77;0.73;;;13.00;99.90;;;;;;6096144;23;20415;-69
2022/11/06 13:33:34;;;;;;;0.70;0.70;;;13.10;99.90;;;;;;6095292;23;20434;-69
2022/11/06 13:36:02;;;;;;;1.00;1.00;;;13.00;99.90;;;;;;6095276;23;20857;-70
2022/11/06 13:38:33;;;;;;;1.27;1.27;;;13.10;99.90;;;;;;6095629;23;20451;-68
2022/11/06 13:41:06;;;;;;;0.67;0.67;;;13.00;99.90;;;;;;6096031;23;20410;-70
2022/11/06 13:43:35;;;;;;;3.00;1.30;;;13.00;99.90;;;;;;6093888;23;20421;-69
2022/11/06 13:46:08;;;;;;;2.33;1.40;;;13.00;99.90;;;;;;6094237;23;20833;-67
2022/11/06 13:48:47;;;;;;;0.87;0.87;;;13.00;99.90;;;;;;6094446;23;20792;-69
2022/11/06 13:51:22;;;;;;;1.47;1.37;;;13.00;99.90;;;;;;6094882;23;20670;-69
2022/11/06 13:53:58;;;;;;;0.57;0.57;;;12.90;99.90;;;;;;6094066;23;20471;-68
2022/11/06 13:57:06;;;;;;;0.60;0.60;;;12.90;99.90;;;;;;6095083;23;20769;-69
2022/11/06 13:59:57;;;;;;;1.27;1.27;;;12.90;99.90;;;;;;6004958;23;20434;-70
2022/11/06 14:02:55;;;;;;;1.20;1.20;;;12.90;99.90;;;;;;6087934;23;21196;-69
2022/11/06 14:05:43;;;;;;;1.53;1.53;;;12.90;99.90;;;;;;6070013;23;20439;-69
2022/11/06 14:08:17;;;;;;;0.97;0.97;;;12.90;99.90;;;;;;6092750;23;20458;-69
2022/11/06 14:10:51;;;;;;;1.60;1.50;;;12.90;99.90;;;;;;6094938;23;20712;-70
2022/11/06 14:13:27;;;;;;;12.73;7.72;;;12.80;99.90;;;;;;6092802;23;20410;-70
2022/11/06 14:16:04;;;;;;;1.60;1.60;;;12.70;99.90;;;;;;6094976;23;20174;-70
2022/11/06 14:18:32;;;;;;;5.32;4.82;;;12.60;99.90;;;;;;6093389;23;20418;-71
2022/11/06 14:21:43;;;;;;;1.75;1.27;;;12.50;99.90;;;;;;6094183;23;20206;-72
2022/11/06 14:24:31;;;;;;;2.43;1.40;;;12.50;99.90;;;;;;6083673;23;20188;-70
2022/11/06 14:26:59;;;;;;;1.38;1.33;;;12.40;99.90;;;;;;6093306;23;20457;-69
2022/11/06 14:30:01;;;;;;;2.23;0.70;;;12.40;99.90;;;;;;6094431;23;20209;-70
2022/11/06 14:32:55;;;;;;;0.77;0.77;;;12.30;99.90;;;;;;6092379;23;21145;-70
2022/11/06 14:35:50;;;;;;;1.13;0.93;;;12.30;99.90;;;;;;6094936;23;20411;-68
2022/11/06 14:38:29;;;;;;;2.40;1.58;;;12.30;99.90;;;;;;6092464;23;20583;-70
2022/11/06 14:40:57;;;;;;;1.33;1.23;;;12.30;99.90;;;;;;6094133;23;20189;-72
2022/11/06 14:43:27;;;;;;;1.40;1.40;;;12.30;99.90;;;;;;6102772;23;20452;-70
2022/11/06 14:46:00;;;;;;;0.98;0.98;;;12.30;99.90;;;;;;6095814;23;20193;-71
2022/11/06 14:48:29;;;;;;;1.07;1.07;;;12.30;99.90;;;;;;6094283;23;20185;-70
2022/11/06 14:50:58;;;;;;;1.08;1.00;;;12.20;99.90;;;;;;6093292;23;20422;-70
2022/11/06 14:53:28;;;;;;;0.57;0.57;;;12.20;99.90;;;;;;6090243;23;20182;-70
2022/11/06 14:56:00;;;;;;;0.80;0.80;;;12.10;99.90;;;;;;6093691;23;20509;-70
2022/11/06 14:58:31;;;;;;;2.28;2.17;;;12.10;99.90;;;;;;6093140;23;20764;-70
2022/11/06 15:01:01;;;;;;;2.40;2.30;;;12.00;99.90;;;;;;6092666;23;20189;-70
2022/11/06 15:03:33;;;;;;;3.97;1.77;;;11.90;99.90;;;;;;6092327;23;20170;-70
2022/11/06 15:06:06;;;;;;;6.07;4.25;;;11.90;99.90;;;;;;6092601;23;20502;-70
2022/11/06 15:08:56;;;;;;;5.18;2.33;;;11.80;99.90;;;;;;6091596;23;20191;-70
2022/11/06 15:11:52;;;;;;;1.85;0.90;;;11.80;99.90;;;;;;6088549;23;20186;-70
2022/11/06 15:14:57;;;;;;;7.57;5.25;;;11.70;99.90;;;;;;6091913;23;20181;-70
2022/11/06 15:17:28;;;;;;;4.18;2.75;;;11.70;99.90;;;;;;6093567;23;20208;-69
2022/11/06 15:20:12;;;;;;;2.00;1.90;;;11.60;99.90;;;;;;6093572;23;20166;-70
2022/11/06 15:22:46;;;;;;;0.70;0.70;;;11.60;99.90;;;;;;6091974;23;20166;-70
2022/11/06 15:25:20;;;;;;;1.40;1.35;;;11.60;99.90;;;;;;6092759;23;20172;-71
2022/11/06 15:27:53;;;;;;;0.82;0.82;;;11.60;99.90;;;;;;6092161;23;20205;-71
2022/11/06 15:30:20;;;;;;;1.48;1.10;;;11.50;99.90;;;;;;6092482;23;20177;-70
2022/11/06 15:32:51;;;;;;;0.90;0.90;;;11.50;99.90;;;;;;6102340;23;20184;-71
2022/11/06 15:35:21;;;;;;;0.98;0.98;;;11.50;99.90;;;;;;6093201;23;20185;-71
2022/11/06 15:37:52;;;;;;;1.30;1.27;;;11.40;99.90;;;;;;6092051;23;20208;-71
2022/11/06 15:40:28;;;;;;;0.90;0.90;;;11.40;99.90;;;;;;6093137;23;20176;-70
2022/11/06 15:42:57;;;;;;;0.60;0.60;;;11.40;99.90;;;;;;6092468;23;20482;-71
2022/11/06 15:45:27;;;;;;;1.55;1.45;;;11.40;99.90;;;;;;6092991;23;20184;-71
2022/11/06 15:47:57;;;;;;;0.93;0.93;;;11.30;99.90;;;;;;6092379;23;20211;-70
2022/11/06 15:50:26;;;;;;;0.88;0.88;;;11.30;99.90;;;;;;6091909;23;20172;-70
2022/11/06 15:52:53;;;;;;;1.05;1.05;;;11.30;99.90;;;;;;6091629;23;20214;-69
2022/11/06 15:55:28;;;;;;;0.50;0.50;;;11.30;99.90;;;;;;6093226;23;20195;-70
2022/11/06 15:58:04;;;;;;;1.40;0.80;;;11.30;99.90;;;;;;6092586;23;20669;-69
2022/11/06 16:00:35;;;;;;;0.70;0.70;;;11.20;99.90;;;;;;6093500;23;20166;-70
2022/11/06 16:03:05;;;;;;;1.98;0.80;;;11.20;99.90;;;;;;6090951;23;20176;-70
2022/11/06 16:05:35;;;;;;;1.45;1.13;;;11.20;99.90;;;;;;6093519;23;20165;-69
2022/11/06 16:08:05;;;;;;;1.30;0.70;;;11.20;99.90;;;;;;6093633;23;20208;-70
2022/11/06 16:10:33;;;;;;;1.42;1.42;;;11.10;99.90;;;;;;6095448;23;20214;-69
2022/11/06 16:13:02;;;;;;;1.40;0.88;;;11.10;99.90;;;;;;6094297;23;20185;-70
2022/11/06 16:15:48;;;;;;;1.00;1.00;;;11.10;99.90;;;;;;6095516;23;20182;-70
2022/11/06 16:18:21;;;;;;;0.88;0.88;;;11.00;99.90;;;;;;6094879;23;20200;-70
2022/11/06 16:20:50;;;;;;;3.08;2.88;;;11.00;99.90;;;;;;6094701;23;20610;-70
2022/11/06 16:23:20;;;;;;;3.13;1.10;;;11.00;99.90;;;;;;6094087;23;20184;-70
2022/11/06 16:25:47;;;;;;;1.63;1.52;;;11.10;99.90;;;;;;6093985;23;20601;-70
2022/11/06 16:28:19;;;;;;;0.85;0.82;;;11.10;99.90;;;;;;6093738;23;20581;-70
2022/11/06 16:30:48;;;;;;;8.07;5.30;;;11.00;99.90;;;;;;6094616;23;20188;-70
2022/11/06 16:33:21;;;;;;;1.77;1.77;;;11.00;99.90;;;;;;6094142;23;20188;-70
2022/11/06 16:35:49;;;;;;;3.88;2.45;;;11.00;99.90;;;;;;6095158;23;20301;-70
2022/11/06 16:38:37;;;;;;;1.50;1.38;;;11.00;99.90;;;;;;6094099;23;20260;-70
2022/11/06 16:41:05;;;;;;;2.03;1.92;;;11.00;99.90;;;;;;6094924;23;20173;-70
2022/11/06 16:43:31;;;;;;;1.58;1.02;;;10.90;99.90;;;;;;6092978;23;20521;-69
2022/11/06 16:46:04;;;;;;;2.20;2.00;;;10.90;99.90;;;;;;6094680;23;20522;-70
2022/11/06 16:48:39;;;;;;;0.85;0.85;;;10.90;99.90;;;;;;6094435;23;20221;-70
2022/11/06 16:51:12;;;;;;;1.17;1.17;;;10.90;99.90;;;;;;6094114;23;20166;-70
2022/11/06 16:53:53;;;;;;;1.00;1.00;;;10.90;99.90;;;;;;6092556;23;20280;-70
2022/11/06 16:56:24;;;;;;;1.95;1.83;;;10.80;99.90;;;;;;6094383;23;20211;-70
2022/11/06 16:58:55;;;;;;;0.95;0.95;;;10.80;99.90;;;;;;6094728;23;20226;-71
2022/11/06 17:01:22;;;;;;;3.03;0.98;;;10.80;99.90;;;;;;6094598;23;20609;-69
2022/11/06 17:04:00;;;;;;;1.25;1.25;;;10.80;99.90;;;;;;6094085;23;20188;-69
2022/11/06 17:06:28;;;;;;;3.83;1.50;;;10.80;99.90;;;;;;6093762;23;20218;-70
2022/11/06 17:09:01;;;;;;;4.25;1.00;;;10.70;99.90;;;;;;6092325;23;20208;-70
2022/11/06 17:11:28;;;;;;;0.82;0.82;;;10.60;99.90;;;;;;6093946;23;20189;-70
2022/11/06 17:13:55;;;;;;;0.60;0.60;;;10.60;99.90;;;;;;6092585;23;20193;-70
2022/11/06 17:16:24;;;;;;;0.90;0.90;;;10.60;99.90;;;;;;6094308;23;20511;-70
2022/11/06 17:18:53;;;;;;;2.28;1.25;;;10.60;99.90;;;;;;6093134;23;20483;-70
2022/11/06 17:21:21;;;;;;;1.60;1.20;;;10.60;99.90;;;;;;6091215;23;20207;-70
2022/11/06 17:23:48;;;;;;;0.70;0.70;;;10.60;99.90;;;;;;6090112;23;20181;-70
2022/11/06 17:26:19;;;;;;;0.80;0.80;;;10.50;99.90;;;;;;6103398;23;20194;-69
2022/11/06 17:28:46;;;;;;;0.93;0.93;;;10.50;99.90;;;;;;6092249;23;20188;-67
2022/11/06 17:31:14;;;;;;;2.15;2.05;;;10.50;99.90;;;;;;6093543;23;20522;-66
2022/11/06 17:33:42;;;;;;;3.20;2.83;;;10.50;99.90;;;;;;6092057;23;20189;-67
2022/11/06 17:36:16;;;;;;;4.20;2.55;;;10.40;99.90;;;;;;6091340;23;20913;-67
2022/11/06 17:38:42;;;;;;;2.25;1.60;;;10.40;99.90;;;;;;6091293;23;20170;-68
2022/11/06 17:41:09;;;;;;;8.95;4.50;;;10.40;99.90;;;;;;6092281;23;20197;-67
2022/11/06 17:43:36;;;;;;;7.45;6.18;;;10.30;99.90;;;;;;6090429;23;20188;-67
2022/11/06 17:46:03;;;;;;;1.80;1.70;;;10.30;99.90;;;;;;6091913;23;20185;-66
2022/11/06 17:48:29;;;;;;;1.23;1.13;;;10.30;99.90;;;;;;6090833;23;20207;-66
2022/11/06 17:53:42;;;;;;;1.67;1.67;;;10.20;99.90;;;;;;6092497;23;20206;-67
2022/11/06 17:56:09;;;;;;;1.08;1.08;;;10.20;99.90;;;;;;6094116;23;20394;-67
2022/11/06 17:58:35;;;;;;;2.50;1.83;;;10.20;99.90;;;;;;6093206;23;20186;-68
2022/11/06 18:01:07;;;;;;;1.00;1.00;;;10.10;99.90;;;;;;6092286;23;20183;-68
2022/11/06 18:03:34;;;;;;;3.40;1.48;;;10.20;99.90;;;;;;6091686;23;20190;-68
2022/11/06 18:06:01;;;;;;;1.77;1.67;;;10.20;99.90;;;;;;6093575;23;20182;-68
2022/11/06 18:08:28;;;;;;;2.25;1.55;;;10.20;99.90;;;;;;6093641;23;20200;-68
2022/11/06 18:10:56;;;;;;;3.03;1.90;;;10.10;99.90;;;;;;6093135;23;20223;-68
2022/11/06 18:13:23;;;;;;;1.73;1.63;;;10.20;99.90;;;;;;6093412;23;20191;-66